Time;durP1;ratioP1;P1;durP2;ratioP2;P2;SDS_P1;SDS_P2;PMS_P1;PMS_P2;Temp;Humidity;BMP_temperature;BMP_pressure;BME280_temperature;BME280_humidity;BME280_pressure;Samples;Min_cycle;Max_cycle;Signal;HPM_P1;HPM_P2
2022/09/19 00:01:10;;;;;;;6.20;2.73;;;;;21.40;100511.00;;;;2074965;28;20209;-59
2022/09/19 00:02:10;;;;;;;3.15;2.22;;;;;21.40;100489.00;;;;2070845;28;20304;-58
2022/09/19 00:03:10;;;;;;;6.50;2.33;;;;;21.30;100487.00;;;;2074296;28;20222;-58
2022/09/19 00:04:19;;;;;;;5.97;2.40;;;;;21.30;100490.00;;;;2077953;28;20300;-57
2022/09/19 00:05:19;;;;;;;5.03;3.00;;;;;21.40;100479.00;;;;2072152;28;20210;-57
2022/09/19 00:06:20;;;;;;;5.70;2.87;;;;;21.40;100490.00;;;;2070404;28;20692;-57
2022/09/19 00:07:21;;;;;;;5.57;2.90;;;;;21.40;100491.00;;;;2073539;28;20741;-57
2022/09/19 00:08:22;;;;;;;6.57;2.90;;;;;21.40;100488.00;;;;2072259;28;20256;-57
2022/09/19 00:09:28;;;;;;;3.60;2.45;;;;;21.30;100480.00;;;;2075239;28;20256;-60
2022/09/19 00:10:28;;;;;;;5.43;2.50;;;;;21.30;100495.00;;;;2069695;28;20210;-58
2022/09/19 00:11:29;;;;;;;7.20;2.43;;;;;21.40;100496.00;;;;2071811;28;20229;-57
2022/09/19 00:12:29;;;;;;;5.30;2.50;;;;;21.40;100491.00;;;;2075111;28;20268;-58
2022/09/19 00:13:30;;;;;;;8.10;2.83;;;;;21.40;100494.00;;;;2078875;28;20217;-57
2022/09/19 00:14:33;;;;;;;4.43;2.67;;;;;21.40;100488.00;;;;2078795;28;20296;-57
2022/09/19 00:15:35;;;;;;;5.15;2.22;;;;;21.40;100489.00;;;;2077905;28;20222;-58
2022/09/19 00:16:38;;;;;;;3.85;2.22;;;;;21.40;100489.00;;;;2078210;28;20236;-58
2022/09/19 00:17:39;;;;;;;5.93;2.28;;;;;21.40;100483.00;;;;2068715;28;20218;-57
2022/09/19 00:18:39;;;;;;;6.17;2.33;;;;;21.30;100488.00;;;;2067668;28;20246;-57
2022/09/19 00:19:39;;;;;;;7.10;2.30;;;;;21.30;100497.00;;;;2074039;28;20213;-59
2022/09/19 00:20:40;;;;;;;5.90;2.70;;;;;21.30;100496.00;;;;2071417;28;20252;-57
2022/09/19 00:21:42;;;;;;;3.97;2.30;;;;;21.30;100490.00;;;;2073611;28;20260;-57
2022/09/19 00:24:45;;;;;;;4.88;2.33;;;;;21.30;100488.00;;;;2067934;28;20210;-57
2022/09/19 00:25:38;;;;;;;4.05;2.40;;;;;21.30;100487.00;;;;2076731;28;20285;-58
2022/09/19 00:26:38;;;;;;;5.30;2.70;;;;;21.30;100491.00;;;;2069478;28;20242;-57
2022/09/19 00:27:39;;;;;;;7.00;2.60;;;;;21.30;100492.00;;;;2069428;28;20230;-57
2022/09/19 00:28:39;;;;;;;6.53;2.67;;;;;21.30;100496.00;;;;2077646;28;20217;-57
2022/09/19 00:29:41;;;;;;;4.27;2.20;;;;;21.30;100490.00;;;;2071878;28;20248;-57
2022/09/19 00:30:42;;;;;;;4.10;2.50;;;;;21.30;100498.00;;;;2067281;28;20249;-58
2022/09/19 00:31:44;;;;;;;4.03;2.17;;;;;21.30;100487.00;;;;2070169;28;20701;-58
2022/09/19 00:32:44;;;;;;;3.80;2.25;;;;;21.30;100492.00;;;;2077721;28;20213;-58
2022/09/19 00:33:46;;;;;;;4.37;2.27;;;;;21.30;100487.00;;;;2070875;28;20249;-58
2022/09/19 00:34:47;;;;;;;3.80;2.17;;;;;21.30;100487.00;;;;2054282;28;20220;-58
2022/09/19 00:35:54;;;;;;;4.90;2.20;;;;;21.30;100487.00;;;;2068060;28;20709;-58
2022/09/19 00:36:54;;;;;;;4.10;2.20;;;;;20.90;100484.00;;;;2070497;28;20817;-57
2022/09/19 00:37:54;;;;;;;7.33;2.10;;;;;21.30;100482.00;;;;2074978;28;20238;-58
2022/09/19 00:38:55;;;;;;;5.70;2.03;;;;;21.30;100495.00;;;;2079044;28;20228;-57
2022/09/19 00:39:55;;;;;;;3.70;2.00;;;;;21.30;100489.00;;;;2071697;28;20214;-58
2022/09/19 00:40:56;;;;;;;5.00;2.30;;;;;21.30;100487.00;;;;2077588;28;20612;-57
2022/09/19 00:41:56;;;;;;;7.00;2.30;;;;;21.30;100483.00;;;;2074300;28;20210;-60
2022/09/19 00:42:57;;;;;;;4.17;2.30;;;;;21.30;100480.00;;;;2072746;28;20236;-59
2022/09/19 00:43:59;;;;;;;5.73;2.60;;;;;21.20;100485.00;;;;2075477;28;20814;-58
2022/09/19 00:45:01;;;;;;;4.97;2.17;;;;;21.20;100500.00;;;;2071552;28;20214;-58
2022/09/19 00:46:02;;;;;;;3.33;1.67;;;;;21.30;100490.00;;;;2076883;28;20220;-58
2022/09/19 00:47:10;;;;;;;5.13;2.13;;;;;21.30;100503.00;;;;2073929;28;20215;-59
2022/09/19 00:48:14;;;;;;;5.03;1.95;;;;;21.20;100501.00;;;;2072880;28;20941;-58
2022/09/19 00:49:15;;;;;;;3.50;1.83;;;;;21.30;100504.00;;;;2062290;28;20223;-57
2022/09/19 00:50:26;;;;;;;5.17;1.80;;;;;21.30;100501.00;;;;2062646;28;20606;-58
2022/09/19 00:51:51;;;;;;;4.40;2.00;;;;;21.30;100498.00;;;;2068688;28;20216;-57
2022/09/19 00:52:54;;;;;;;5.18;2.40;;;;;21.20;100500.00;;;;2079161;28;20229;-58
2022/09/19 00:53:54;;;;;;;5.40;2.30;;;;;21.30;100497.00;;;;2068019;28;20698;-57
2022/09/19 00:54:56;;;;;;;5.50;2.00;;;;;21.20;100496.00;;;;2071460;28;20214;-57
2022/09/19 00:55:57;;;;;;;4.55;2.47;;;;;21.20;100498.00;;;;2076145;28;20319;-58
2022/09/19 00:56:57;;;;;;;5.90;2.00;;;;;21.20;100500.00;;;;2078885;28;20268;-57
2022/09/19 00:58:19;;;;;;;4.90;2.13;;;;;21.20;100494.00;;;;2078789;28;20268;-58
2022/09/19 00:59:20;;;;;;;4.50;2.13;;;;;21.20;100498.00;;;;2072720;28;20284;-58
2022/09/19 01:00:20;;;;;;;6.23;2.03;;;;;21.20;100499.00;;;;2075770;28;20679;-58
2022/09/19 01:01:20;;;;;;;4.13;2.27;;;;;21.20;100489.00;;;;2075648;28;20870;-58
2022/09/19 01:02:23;;;;;;;4.27;1.73;;;;;21.20;100500.00;;;;2065958;28;20219;-57
2022/09/19 01:03:27;;;;;;;4.00;2.30;;;;;21.20;100494.00;;;;2068224;28;20580;-57
2022/09/19 01:04:30;;;;;;;3.70;2.00;;;;;21.20;100504.00;;;;2072438;28;20222;-59
2022/09/19 01:05:41;;;;;;;6.72;2.28;;;;;21.20;100513.00;;;;2069977;28;20256;-58
2022/09/19 01:07:13;;;;;;;2.92;1.92;;;;;21.20;100504.00;;;;2069237;28;20218;-57
2022/09/19 01:08:26;;;;;;;4.55;2.28;;;;;21.20;100516.00;;;;2067735;28;20256;-57
2022/09/19 01:09:48;;;;;;;4.88;1.80;;;;;21.20;100493.00;;;;2075502;28;20219;-58
2022/09/19 01:11:03;;;;;;;6.15;1.83;;;;;21.20;100476.00;;;;2076986;28;20220;-57
2022/09/19 01:12:16;;;;;;;5.50;2.20;;;;;21.20;100496.00;;;;2067215;28;20336;-57
2022/09/19 01:13:17;;;;;;;3.33;1.77;;;;;21.20;100492.00;;;;2070576;28;20302;-57
2022/09/19 01:14:53;;;;;;;5.17;1.93;;;;;21.20;100515.00;;;;2079462;28;20218;-57
2022/09/19 01:16:03;;;;;;;4.82;1.73;;;;;21.10;100506.00;;;;2053207;28;20461;-57
2022/09/19 01:17:09;;;;;;;4.28;1.60;;;;;21.20;100510.00;;;;2068530;28;20210;-57
2022/09/19 01:18:09;;;;;;;3.50;1.55;;;;;21.20;100505.00;;;;2068560;28;20218;-57
2022/09/19 01:19:47;;;;;;;4.67;1.97;;;;;21.20;100513.00;;;;2071479;28;20272;-57
2022/09/19 01:21:37;;;;;;;4.65;2.28;;;;;20.70;100516.00;;;;2074425;28;20213;-58
2022/09/19 01:22:43;;;;;;;5.15;2.00;;;;;21.20;100485.00;;;;2077611;28;20312;-57
2022/09/19 01:23:55;;;;;;;7.18;2.40;;;;;21.20;100518.00;;;;2072675;28;20344;-58
2022/09/19 01:25:20;;;;;;;5.82;1.90;;;;;21.20;100512.00;;;;2066395;28;20222;-57
2022/09/19 01:26:43;;;;;;;4.28;1.98;;;;;21.20;100518.00;;;;2071482;28;20214;-57
2022/09/19 01:28:17;;;;;;;3.70;1.92;;;;;21.20;100515.00;;;;2072034;28;20693;-57
2022/09/19 01:29:22;;;;;;;4.32;1.73;;;;;21.20;100525.00;;;;2071530;28;20310;-58
2022/09/19 01:30:23;;;;;;;5.00;1.50;;;;;21.20;100520.00;;;;2066917;28;20210;-57
2022/09/19 01:31:29;;;;;;;5.50;1.93;;;;;21.20;100517.00;;;;2063352;28;20218;-57
2022/09/19 01:32:33;;;;;;;3.58;1.63;;;;;21.20;100522.00;;;;2058034;28;20581;-58
2022/09/19 01:33:34;;;;;;;5.30;2.13;;;;;21.20;100517.00;;;;2064103;28;20302;-58
2022/09/19 01:34:37;;;;;;;3.50;1.80;;;;;21.20;100521.00;;;;2063295;28;20230;-58
2022/09/19 01:35:38;;;;;;;5.47;1.98;;;;;21.20;100520.00;;;;2060837;28;21319;-58
2022/09/19 01:36:46;;;;;;;6.83;2.23;;;;;21.20;100523.00;;;;2068837;28;20253;-58
2022/09/19 01:37:50;;;;;;;5.50;1.90;;;;;21.10;100517.00;;;;2079003;28;20284;-57
2022/09/19 01:38:51;;;;;;;4.18;2.15;;;;;21.10;100519.00;;;;2064041;28;20215;-58
2022/09/19 01:39:52;;;;;;;4.15;1.60;;;;;21.10;100515.00;;;;2072073;28;20701;-58
2022/09/19 01:40:52;;;;;;;4.40;2.00;;;;;21.10;100512.00;;;;2067177;28;20210;-58
2022/09/19 01:41:53;;;;;;;5.63;1.80;;;;;21.10;100512.00;;;;2047523;28;20709;-58
2022/09/19 01:42:58;;;;;;;6.10;1.87;;;;;21.20;100524.00;;;;2063278;28;20618;-57
2022/09/19 01:44:05;;;;;;;5.85;1.75;;;;;21.10;100519.00;;;;2075799;28;20999;-58
2022/09/19 01:45:09;;;;;;;7.35;1.92;;;;;21.20;100525.00;;;;2077171;28;20221;-58
2022/09/19 01:46:27;;;;;;;5.78;2.05;;;;;21.10;100523.00;;;;2070534;28;20222;-57
2022/09/19 01:47:36;;;;;;;7.75;2.42;;;;;21.10;100522.00;;;;2065215;28;20447;-57
2022/09/19 01:48:48;;;;;;;4.50;1.90;;;;;21.10;100535.00;;;;2067119;28;20306;-58
2022/09/19 01:49:58;;;;;;;6.82;1.83;;;;;21.10;100534.00;;;;2079405;28;20210;-58
2022/09/19 01:51:30;;;;;;;3.67;1.50;;;;;21.10;100532.00;;;;2077196;28;20215;-57
2022/09/19 01:52:44;;;;;;;4.07;1.73;;;;;21.10;100532.00;;;;2073553;28;20260;-58
2022/09/19 01:54:07;;;;;;;6.32;2.20;;;;;21.10;100579.00;;;;2072736;28;20224;-58
2022/09/19 01:55:07;;;;;;;5.07;1.77;;;;;21.10;100528.00;;;;2072310;28;20213;-59
2022/09/19 01:56:16;;;;;;;5.23;1.70;;;;;21.10;100528.00;;;;2075967;28;20884;-59
2022/09/19 01:57:37;;;;;;;4.68;2.00;;;;;21.10;100528.00;;;;2079021;28;20657;-57
2022/09/19 01:58:54;;;;;;;4.97;1.92;;;;;21.10;100532.00;;;;2073021;28;20248;-59
2022/09/19 02:00:12;;;;;;;3.50;1.58;;;;;21.10;100533.00;;;;2075666;28;20963;-57
2022/09/19 02:01:20;;;;;;;6.63;1.80;;;;;21.10;100526.00;;;;2069247;28;20269;-57
2022/09/19 02:02:23;;;;;;;4.70;1.83;;;;;21.10;100524.00;;;;2070893;28;20746;-57
2022/09/19 02:03:28;;;;;;;5.50;2.20;;;;;21.10;100524.00;;;;2064333;28;20315;-58
2022/09/19 02:04:31;;;;;;;6.07;1.95;;;;;21.10;100536.00;;;;2070360;28;20211;-58
2022/09/19 02:05:37;;;;;;;6.32;1.83;;;;;21.10;100530.00;;;;2065020;28;20294;-58
2022/09/19 02:07:07;;;;;;;7.45;1.92;;;;;21.10;100539.00;;;;2071298;28;20310;-58
2022/09/19 02:08:31;;;;;;;4.93;2.15;;;;;21.10;100526.00;;;;2075544;28;20247;-56
2022/09/19 02:10:10;;;;;;;6.05;1.88;;;;;21.10;100540.00;;;;2066222;28;20612;-57
2022/09/19 02:11:14;;;;;;;5.72;1.45;;;;;21.10;100539.00;;;;2056127;28;20215;-59
2022/09/19 02:12:16;;;;;;;7.40;1.85;;;;;21.10;100520.00;;;;2054077;28;20702;-57
2022/09/19 02:13:17;;;;;;;4.70;1.85;;;;;21.10;100545.00;;;;2042084;28;20228;-57
2022/09/19 02:14:18;;;;;;;5.10;1.77;;;;;20.40;100542.00;;;;2062541;28;20215;-58
2022/09/19 02:15:21;;;;;;;5.38;1.92;;;;;21.10;100522.00;;;;2062330;28;20203;-58
2022/09/19 02:16:25;;;;;;;5.68;2.20;;;;;21.10;100521.00;;;;2050997;28;20303;-57
2022/09/19 02:17:32;;;;;;;4.60;1.95;;;;;21.10;100542.00;;;;2054282;28;20210;-57
2022/09/19 02:18:44;;;;;;;3.83;1.88;;;;;21.00;100542.00;;;;2060351;28;20269;-57
2022/09/19 02:19:47;;;;;;;4.65;1.90;;;;;21.00;100543.00;;;;2059265;28;20215;-58
2022/09/19 02:20:47;;;;;;;5.10;1.65;;;;;21.10;100542.00;;;;2055202;28;20219;-57
2022/09/19 02:21:59;;;;;;;4.20;1.60;;;;;21.10;100543.00;;;;2074702;28;20248;-56
2022/09/19 02:23:14;;;;;;;4.13;1.73;;;;;21.10;100547.00;;;;2065943;28;20215;-57
2022/09/19 02:24:17;;;;;;;4.80;1.88;;;;;21.00;100544.00;;;;2072801;28;20253;-57
2022/09/19 02:25:20;;;;;;;4.20;1.83;;;;;21.10;100549.00;;;;2067964;28;20274;-58
2022/09/19 02:26:20;;;;;;;5.03;1.92;;;;;21.00;100543.00;;;;2062672;28;20285;-57
2022/09/19 02:27:22;;;;;;;4.33;1.60;;;;;21.10;100529.00;;;;2054546;28;20755;-57
2022/09/19 02:28:29;;;;;;;4.47;1.50;;;;;21.10;100538.00;;;;2065415;28;20585;-57
2022/09/19 02:29:30;;;;;;;4.00;1.80;;;;;21.10;100563.00;;;;2070901;28;20217;-58
2022/09/19 02:30:30;;;;;;;3.58;1.50;;;;;21.00;100541.00;;;;2068375;28;20210;-57
2022/09/19 02:31:30;;;;;;;3.70;1.90;;;;;21.00;100548.00;;;;2062953;28;20710;-57
2022/09/19 02:32:31;;;;;;;3.13;1.50;;;;;21.00;100551.00;;;;2076927;28;20606;-58
2022/09/19 02:33:32;;;;;;;3.20;1.60;;;;;21.00;100543.00;;;;2077617;28;20216;-57
2022/09/19 02:34:33;;;;;;;4.67;1.53;;;;;21.10;100538.00;;;;2065287;28;20226;-57
2022/09/19 02:35:59;;;;;;;5.15;1.90;;;;;21.10;100542.00;;;;2054999;28;20451;-58
2022/09/19 02:37:07;;;;;;;5.00;1.58;;;;;21.00;100554.00;;;;2069393;28;20269;-57
2022/09/19 02:38:17;;;;;;;4.63;1.73;;;;;21.00;100555.00;;;;2075164;28;20217;-58
2022/09/19 02:39:30;;;;;;;4.65;1.83;;;;;21.00;100556.00;;;;2075623;28;20684;-58
2022/09/19 02:40:35;;;;;;;5.00;1.88;;;;;21.00;100535.00;;;;2076920;28;20227;-58
2022/09/19 02:41:49;;;;;;;4.35;1.77;;;;;21.10;100569.00;;;;2070920;28;20641;-57
2022/09/19 02:43:14;;;;;;;3.80;1.90;;;;;21.10;100554.00;;;;2065957;28;20230;-57
2022/09/19 02:44:36;;;;;;;5.15;1.70;;;;;21.10;100561.00;;;;2071121;28;20205;-57
2022/09/19 02:45:39;;;;;;;5.22;1.77;;;;;21.00;100490.00;;;;2074221;28;20267;-57
2022/09/19 02:47:15;;;;;;;4.95;1.73;;;;;21.00;100562.00;;;;2058082;28;20227;-58
2022/09/19 02:48:38;;;;;;;5.55;1.50;;;;;21.00;100563.00;;;;2053497;28;20805;-58
2022/09/19 02:49:48;;;;;;;4.45;1.50;;;;;21.00;100538.00;;;;2074583;28;20313;-58
2022/09/19 02:50:59;;;;;;;3.65;1.38;;;;;21.00;100563.00;;;;2067504;28;20221;-58
2022/09/19 02:52:01;;;;;;;4.40;1.77;;;;;21.00;100567.00;;;;2072138;28;20214;-57
2022/09/19 02:53:03;;;;;;;5.10;2.05;;;;;21.00;100564.00;;;;2066081;28;20222;-57
2022/09/19 02:54:30;;;;;;;2.65;1.48;;;;;21.00;100569.00;;;;2053265;28;20212;-56
2022/09/19 02:55:33;;;;;;;4.55;1.55;;;;;21.00;100560.00;;;;2068653;28;20233;-57
2022/09/19 02:56:34;;;;;;;6.97;1.92;;;;;21.00;100576.00;;;;2064485;28;20745;-57
2022/09/19 02:57:34;;;;;;;4.50;1.70;;;;;21.00;100577.00;;;;2066373;28;20744;-58
2022/09/19 02:58:42;;;;;;;5.10;1.63;;;;;21.00;100569.00;;;;2070207;28;20245;-57
2022/09/19 02:59:44;;;;;;;6.68;1.77;;;;;21.00;100573.00;;;;2070760;28;20229;-57
2022/09/19 03:00:46;;;;;;;5.00;1.52;;;;;21.00;100571.00;;;;2072656;28;20214;-58
2022/09/19 03:01:49;;;;;;;5.22;1.80;;;;;21.00;100583.00;;;;2056152;28;20704;-58
2022/09/19 03:02:56;;;;;;;4.75;1.30;;;;;21.00;100564.00;;;;2063037;28;20714;-58
2022/09/19 03:04:14;;;;;;;4.63;1.80;;;;;21.00;100574.00;;;;2071512;28;20353;-57
2022/09/19 03:05:18;;;;;;;3.58;1.60;;;;;21.00;100574.00;;;;2068006;28;20233;-58
2022/09/19 03:06:20;;;;;;;5.50;2.08;;;;;21.00;100572.00;;;;2063845;28;20302;-58
2022/09/19 03:07:32;;;;;;;4.07;1.65;;;;;21.00;100575.00;;;;2062101;28;20261;-58
2022/09/19 03:08:36;;;;;;;3.92;1.65;;;;;21.00;100580.00;;;;2062931;28;21183;-57
2022/09/19 03:09:36;;;;;;;6.60;1.60;;;;;21.00;100583.00;;;;2056487;28;20661;-56
2022/09/19 03:10:40;;;;;;;4.17;1.53;;;;;21.00;100559.00;;;;2062388;28;20302;-56
2022/09/19 03:11:42;;;;;;;4.22;1.50;;;;;21.00;100573.00;;;;2062794;28;20222;-56
2022/09/19 03:12:51;;;;;;;2.83;1.52;;;;;21.00;100576.00;;;;2070855;28;20225;-56
2022/09/19 03:13:58;;;;;;;4.28;1.60;;;;;21.00;100581.00;;;;2078355;28;20292;-56
2022/09/19 03:14:59;;;;;;;3.45;1.42;;;;;21.00;100569.00;;;;2075335;28;20210;-56
2022/09/19 03:16:13;;;;;;;4.33;1.80;;;;;21.00;100569.00;;;;2076359;28;20205;-56
2022/09/19 03:17:16;;;;;;;14.23;2.50;;;;;21.00;100476.00;;;;2070133;28;20235;-56
2022/09/19 03:18:17;;;;;;;3.70;1.55;;;;;21.00;100548.00;;;;2059391;28;20222;-56
2022/09/19 03:19:17;;;;;;;7.13;1.70;;;;;21.00;100578.00;;;;2059806;28;20220;-56
2022/09/19 03:20:18;;;;;;;5.30;1.40;;;;;21.00;100573.00;;;;2068980;28;20198;-55
2022/09/19 03:21:19;;;;;;;2.93;1.60;;;;;21.00;100582.00;;;;2066703;28;20219;-56
2022/09/19 03:22:19;;;;;;;7.55;1.65;;;;;20.90;100580.00;;;;2068492;28;20447;-56
2022/09/19 03:23:23;;;;;;;3.50;1.47;;;;;21.00;100578.00;;;;2076420;28;20209;-56
2022/09/19 03:24:24;;;;;;;3.50;1.40;;;;;20.90;100583.00;;;;2058034;28;20211;-57
2022/09/19 03:25:25;;;;;;;6.87;1.60;;;;;20.90;100574.00;;;;2054332;28;20200;-56
2022/09/19 03:26:30;;;;;;;4.53;1.75;;;;;21.00;100588.00;;;;2070296;28;20264;-56
2022/09/19 03:27:30;;;;;;;5.47;1.58;;;;;21.00;100587.00;;;;2078276;28;20206;-56
2022/09/19 03:28:30;;;;;;;4.40;1.80;;;;;21.00;100586.00;;;;2077603;28;20248;-56
2022/09/19 03:29:31;;;;;;;5.53;1.97;;;;;20.90;100576.00;;;;2072160;28;20202;-56
2022/09/19 03:30:31;;;;;;;5.27;1.87;;;;;21.00;100581.00;;;;2072735;28;20329;-56
2022/09/19 03:31:31;;;;;;;5.23;1.73;;;;;21.00;100579.00;;;;2074635;28;20568;-56
2022/09/19 03:32:32;;;;;;;3.13;1.40;;;;;20.90;100576.00;;;;2078933;28;20650;-56
2022/09/19 03:33:32;;;;;;;4.03;1.63;;;;;20.90;100593.00;;;;2073982;28;20717;-56
2022/09/19 03:34:32;;;;;;;3.53;1.70;;;;;20.90;100567.00;;;;2076973;28;20604;-56
2022/09/19 03:35:33;;;;;;;5.13;1.70;;;;;20.90;100588.00;;;;2075030;28;20268;-56
2022/09/19 03:36:33;;;;;;;4.87;1.70;;;;;20.90;100588.00;;;;2071642;28;20240;-56
2022/09/19 03:37:34;;;;;;;4.03;1.50;;;;;20.90;100588.00;;;;2074723;28;20229;-56
2022/09/19 03:38:35;;;;;;;6.70;1.70;;;;;20.90;100577.00;;;;2076555;28;20225;-56
2022/09/19 03:39:35;;;;;;;6.55;1.80;;;;;20.90;100586.00;;;;2074622;28;20261;-55
2022/09/19 03:40:37;;;;;;;2.97;1.50;;;;;21.00;100579.00;;;;2074232;28;20295;-56
2022/09/19 03:41:38;;;;;;;6.50;1.88;;;;;20.90;100582.00;;;;2065446;28;20648;-56
2022/09/19 03:42:38;;;;;;;5.63;1.90;;;;;20.90;100587.00;;;;2069995;28;20280;-56
2022/09/19 03:43:40;;;;;;;5.10;1.87;;;;;20.40;100574.00;;;;2074353;28;20225;-56
2022/09/19 03:44:41;;;;;;;5.78;1.77;;;;;20.90;100574.00;;;;2074364;28;20214;-56
2022/09/19 03:45:41;;;;;;;6.40;1.50;;;;;20.90;100575.00;;;;2073635;28;20214;-56
2022/09/19 03:46:43;;;;;;;4.43;1.53;;;;;20.90;100582.00;;;;2069973;28;20241;-56
2022/09/19 03:47:43;;;;;;;6.15;1.88;;;;;20.90;100578.00;;;;2062324;28;20280;-56
2022/09/19 03:48:47;;;;;;;4.40;1.20;;;;;20.90;100581.00;;;;2070875;28;20666;-56
2022/09/19 03:49:49;;;;;;;4.40;1.83;;;;;20.90;100574.00;;;;2075431;28;20220;-56
2022/09/19 03:50:50;;;;;;;2.72;1.40;;;;;20.90;100583.00;;;;2074552;28;20225;-56
2022/09/19 03:51:50;;;;;;;7.03;1.60;;;;;20.90;100586.00;;;;2071250;28;20230;-56
2022/09/19 03:52:50;;;;;;;5.00;1.90;;;;;20.90;100569.00;;;;2069447;28;20214;-56
2022/09/19 03:53:51;;;;;;;7.83;1.90;;;;;20.90;100573.00;;;;2070326;28;20214;-56
2022/09/19 03:54:51;;;;;;;3.80;1.60;;;;;20.90;100574.00;;;;2068233;28;20214;-56
2022/09/19 03:55:51;;;;;;;4.13;1.33;;;;;20.90;100580.00;;;;2070805;28;20206;-56
2022/09/19 03:56:52;;;;;;;3.73;1.57;;;;;20.90;100579.00;;;;2070901;28;20221;-56
2022/09/19 03:57:53;;;;;;;5.68;1.80;;;;;20.90;100578.00;;;;2076045;28;20296;-56
2022/09/19 03:58:53;;;;;;;5.47;1.70;;;;;20.90;100581.00;;;;2077910;28;20637;-56
2022/09/19 03:59:53;;;;;;;4.97;1.70;;;;;20.90;100580.00;;;;2077884;28;20736;-56
2022/09/19 04:00:54;;;;;;;4.13;1.90;;;;;20.90;100571.00;;;;2077467;28;20213;-56
2022/09/19 04:01:54;;;;;;;2.70;1.30;;;;;20.90;100583.00;;;;2075235;28;20210;-57
2022/09/19 04:02:56;;;;;;;4.93;1.40;;;;;20.90;100586.00;;;;2076334;28;20205;-56
2022/09/19 04:03:56;;;;;;;4.95;1.70;;;;;20.90;100578.00;;;;2078345;28;20631;-61
2022/09/19 04:04:57;;;;;;;5.57;1.93;;;;;20.90;100591.00;;;;2078422;28;20229;-59
2022/09/19 04:05:57;;;;;;;3.57;1.50;;;;;20.90;100595.00;;;;2078561;28;20228;-57
2022/09/19 04:06:58;;;;;;;5.20;1.63;;;;;20.40;100599.00;;;;2078667;28;20217;-57
2022/09/19 04:07:58;;;;;;;4.23;1.40;;;;;20.90;100601.00;;;;2077592;28;20707;-56
2022/09/19 04:09:00;;;;;;;4.20;1.50;;;;;20.90;100588.00;;;;2078334;28;20350;-57
2022/09/19 04:10:00;;;;;;;3.70;1.65;;;;;20.90;100590.00;;;;2078641;28;20226;-56
2022/09/19 04:11:00;;;;;;;2.80;1.37;;;;;20.90;100597.00;;;;2078469;28;20209;-56
2022/09/19 04:12:03;;;;;;;4.50;2.30;;;;;20.90;100601.00;;;;2075415;28;20264;-57
2022/09/19 04:13:03;;;;;;;5.60;1.83;;;;;20.90;100601.00;;;;2070320;28;20704;-57
2022/09/19 04:14:04;;;;;;;4.67;1.50;;;;;20.90;100602.00;;;;2070162;28;20210;-57
2022/09/19 04:15:05;;;;;;;3.90;1.87;;;;;20.90;100587.00;;;;2070448;28;20220;-57
2022/09/19 04:16:06;;;;;;;2.78;1.27;;;;;20.90;100599.00;;;;2070565;28;20214;-56
2022/09/19 04:17:07;;;;;;;4.10;1.63;;;;;20.90;100597.00;;;;2070561;28;20226;-57
2022/09/19 04:18:08;;;;;;;7.68;1.98;;;;;20.90;100601.00;;;;2069604;28;20687;-56
2022/09/19 04:19:09;;;;;;;3.90;1.90;;;;;20.90;100607.00;;;;2070374;28;20213;-56
2022/09/19 04:20:10;;;;;;;5.03;1.50;;;;;20.90;100591.00;;;;2069876;28;20210;-56
2022/09/19 04:21:10;;;;;;;5.35;1.67;;;;;20.90;100597.00;;;;2069910;28;20845;-56
2022/09/19 04:22:11;;;;;;;3.27;1.30;;;;;20.90;100594.00;;;;2070512;28;20340;-56
2022/09/19 04:23:16;;;;;;;3.80;1.40;;;;;20.90;100605.00;;;;2070507;28;20207;-56
2022/09/19 04:24:16;;;;;;;5.53;1.77;;;;;20.90;100609.00;;;;2070460;28;20267;-56
2022/09/19 04:25:16;;;;;;;5.77;1.60;;;;;20.90;100608.00;;;;2070376;28;20265;-57
2022/09/19 04:26:17;;;;;;;4.13;1.80;;;;;20.90;100621.00;;;;2069963;28;20233;-56
2022/09/19 04:27:17;;;;;;;5.27;1.57;;;;;20.90;100615.00;;;;2070197;28;20272;-57
2022/09/19 04:28:18;;;;;;;3.17;1.50;;;;;20.90;100607.00;;;;2071224;28;20625;-56
2022/09/19 04:29:19;;;;;;;4.17;1.67;;;;;20.90;100612.00;;;;2071224;28;20244;-56
2022/09/19 04:30:22;;;;;;;4.63;1.80;;;;;20.90;100611.00;;;;2071812;28;20453;-56
2022/09/19 04:31:23;;;;;;;4.10;1.65;;;;;20.90;100610.00;;;;2072311;28;20297;-57
2022/09/19 04:32:24;;;;;;;3.63;1.48;;;;;20.90;100611.00;;;;2072123;28;20210;-56
2022/09/19 04:33:26;;;;;;;5.53;1.55;;;;;20.90;100613.00;;;;2072080;28;20214;-56
2022/09/19 04:34:26;;;;;;;5.80;1.90;;;;;20.90;100616.00;;;;2071864;28;20229;-56
2022/09/19 04:35:27;;;;;;;2.93;1.53;;;;;20.90;100613.00;;;;2072089;28;20210;-56
2022/09/19 04:36:31;;;;;;;7.10;1.50;;;;;20.80;100618.00;;;;2072151;28;20218;-57
2022/09/19 04:37:31;;;;;;;5.03;1.70;;;;;20.90;100604.00;;;;2071257;28;20225;-56
2022/09/19 04:38:32;;;;;;;4.83;1.83;;;;;20.90;100607.00;;;;2071919;28;20293;-58
2022/09/19 04:39:33;;;;;;;5.05;1.92;;;;;20.90;100614.00;;;;2072027;28;20218;-58
2022/09/19 04:40:40;;;;;;;3.50;1.40;;;;;20.80;100621.00;;;;2080230;28;20205;-57
2022/09/19 04:41:40;;;;;;;4.55;1.90;;;;;20.80;100615.00;;;;2079511;28;20213;-56
2022/09/19 04:42:41;;;;;;;6.10;2.10;;;;;20.80;100625.00;;;;2079706;28;20586;-56
2022/09/19 04:43:42;;;;;;;4.90;1.67;;;;;20.80;100620.00;;;;2071720;28;20870;-56
2022/09/19 04:44:42;;;;;;;2.77;1.47;;;;;20.80;100612.00;;;;2072093;28;20469;-56
2022/09/19 04:45:44;;;;;;;6.17;1.70;;;;;20.80;100620.00;;;;2063208;28;20226;-56
2022/09/19 04:46:46;;;;;;;3.55;1.65;;;;;20.80;100621.00;;;;2063616;28;20592;-56
2022/09/19 04:47:47;;;;;;;3.97;1.60;;;;;20.80;100579.00;;;;2070805;28;20221;-56
2022/09/19 04:48:48;;;;;;;7.57;2.22;;;;;20.80;100504.00;;;;2071462;28;20214;-56
2022/09/19 04:49:48;;;;;;;4.07;1.48;;;;;20.80;100625.00;;;;2071221;28;20293;-56
2022/09/19 04:50:50;;;;;;;4.90;1.67;;;;;20.80;100628.00;;;;2072087;28;21183;-55
2022/09/19 04:51:55;;;;;;;4.45;1.90;;;;;20.80;100625.00;;;;2071877;28;20261;-56
2022/09/19 04:52:57;;;;;;;5.72;1.80;;;;;20.80;100618.00;;;;2071153;28;20229;-56
2022/09/19 04:53:57;;;;;;;4.22;1.90;;;;;20.80;100623.00;;;;2071257;28;20214;-56
2022/09/19 04:54:58;;;;;;;5.93;2.00;;;;;20.80;100623.00;;;;2071763;28;20225;-56
2022/09/19 04:55:58;;;;;;;6.47;2.30;;;;;20.80;100630.00;;;;2071188;28;20218;-56
2022/09/19 04:56:58;;;;;;;2.70;1.50;;;;;20.80;100626.00;;;;2071247;28;20214;-56
2022/09/19 04:58:02;;;;;;;5.70;2.07;;;;;20.80;100631.00;;;;2074880;28;20287;-58
2022/09/19 04:59:04;;;;;;;6.03;1.80;;;;;20.80;100636.00;;;;2080162;28;20216;-57
2022/09/19 05:00:04;;;;;;;3.90;1.40;;;;;20.80;100627.00;;;;2074180;28;20226;-57
2022/09/19 05:01:05;;;;;;;2.77;1.87;;;;;20.80;100633.00;;;;2078953;28;20377;-57
2022/09/19 05:02:08;;;;;;;6.27;2.00;;;;;20.80;100645.00;;;;2079525;28;20728;-59
2022/09/19 05:03:11;;;;;;;3.50;1.70;;;;;20.80;100634.00;;;;2077289;28;20571;-57
2022/09/19 05:04:16;;;;;;;4.22;1.65;;;;;20.80;100636.00;;;;2076717;28;20233;-58
2022/09/19 05:05:17;;;;;;;4.30;1.52;;;;;20.80;100631.00;;;;2071336;28;20609;-56
2022/09/19 05:06:18;;;;;;;5.03;1.50;;;;;20.80;100636.00;;;;2075921;28;20209;-56
2022/09/19 05:07:19;;;;;;;5.00;1.67;;;;;20.80;100638.00;;;;2071628;28;20461;-57
2022/09/19 05:08:24;;;;;;;5.40;1.53;;;;;20.80;100630.00;;;;2071921;28;20241;-57
2022/09/19 05:09:24;;;;;;;3.45;1.60;;;;;20.80;100639.00;;;;2076916;28;20448;-56
2022/09/19 05:10:25;;;;;;;5.80;1.70;;;;;20.80;100639.00;;;;2077987;28;20240;-57
2022/09/19 05:11:27;;;;;;;4.60;1.70;;;;;20.80;100637.00;;;;2072014;28;20702;-57
2022/09/19 05:12:28;;;;;;;4.40;1.80;;;;;20.80;100639.00;;;;2072281;28;20301;-57
2022/09/19 05:13:30;;;;;;;6.70;2.10;;;;;20.80;100639.00;;;;2074411;28;20213;-57
2022/09/19 05:14:30;;;;;;;5.22;1.95;;;;;20.80;100643.00;;;;2072857;28;20225;-56
2022/09/19 05:15:31;;;;;;;4.50;1.47;;;;;20.80;100641.00;;;;2075196;28;20210;-57
2022/09/19 05:16:31;;;;;;;4.30;1.60;;;;;20.80;100636.00;;;;2074716;28;20218;-57
2022/09/19 05:17:32;;;;;;;5.87;2.13;;;;;20.80;100642.00;;;;2072055;28;20601;-57
2022/09/19 05:18:35;;;;;;;4.40;1.50;;;;;20.80;100638.00;;;;2075108;28;20331;-56
2022/09/19 05:19:36;;;;;;;4.45;1.73;;;;;20.80;100644.00;;;;2074037;28;20480;-56
2022/09/19 05:20:36;;;;;;;5.10;2.00;;;;;20.80;100644.00;;;;2078456;28;20220;-56
2022/09/19 05:21:36;;;;;;;5.23;2.03;;;;;20.70;100652.00;;;;2083249;28;20988;-55
2022/09/19 05:22:37;;;;;;;5.63;2.20;;;;;20.80;100648.00;;;;2082871;28;20206;-57